Etusivu
METAR-TAF:

METAR-TAF

Lentoasemat :

Frankfurt

Hahn, Saksa

Leveyspiiri: 49-57N, Pituuspiiri: 007-16E, korkeus merenpinnasta: 491 m

Tämänhetkinen sää

Tämä raportti tehtiin 39 minuuttia sitten, kello 00.20 UTC
Tuuli 8 kn etelästä/lounaasta
Lämpötila 1°C
Kosteus 93%
Ilmanpaine 1021 hPa
Näkyvyys 10 km tai enemmän
ei pilviä alle 1500 m:ssä eikä cumulonimbus-pilviä

METAR: EDFH 200020Z 21008KT CAVOK 01/M00 Q1021

Aika: 01:59 (00:59 UTC)

Sääennuste

Tämä raportti tehtiin 1 tunti ja 59 minuuttia sitten, kello 23.00 UTC
Ennuste voimassa 20. päivästä klo 00 UTC - 20. päivään klo 24 UTC
Tuuli 6 kn lännestä/lounaasta
Näkyvyys 10 km tai enemmän
ei pilviä alle 1500 m:ssä eikä cumulonimbus-pilviä

TAF: EDFH 192300Z 2000/2024 24006KT CAVOK

Säähavainnot ja -ennusteet yli 4000 lentoasemalta (METAR- ja TAF-raportit).

Käytössä olevat sääasemat on merkitty karttaan keltaisilla ja punaisilla pisteillä.

Aseta hiiri pisteen päälle nähdäksesi sääaseman nimen.

Klikkaa sitten nähdäksesi säähavainnot ja -ennusteet.

Kartan vaihtaminen: klikkaa mustalla rastilla varustettuja vihreitä pisteitä, niin voit zoomata sisään; viivalla varustettua vihreää pistettä, niin voit zoomata ulos tai vihreitä nuolia, niin pääset viereisille kartoille.


METAR-TAF: